Time;durP1;ratioP1;P1;durP2;ratioP2;P2;SDS_P1;SDS_P2;PMS_P1;PMS_P2;Temp;Humidity;BMP_temperature;BMP_pressure;BME280_temperature;BME280_humidity;BME280_pressure;Samples;Min_cycle;Max_cycle;Signal;HPM_P1;HPM_P2
2022/05/15 00:00:42;;;;;;;4.70;2.20;;;;;;;19.08;51.83;101381.78;2056592;28;20434;-67
2022/05/15 00:01:43;;;;;;;4.30;2.73;;;;;;;17.91;51.82;101218.41;2081814;28;20435;-67
2022/05/15 00:02:44;;;;;;;5.47;2.20;;;;;;;19.08;51.90;101398.66;2081794;28;20940;-67
2022/05/15 00:03:44;;;;;;;5.37;2.50;;;;;;;19.06;51.84;101389.13;2080924;28;20181;-67
2022/05/15 00:04:45;;;;;;;4.83;2.20;;;;;;;18.98;51.77;101396.34;2081136;28;20343;-67
2022/05/15 00:05:51;;;;;;;5.63;2.40;;;;;;;18.83;51.83;101373.75;2082111;28;20280;-67
2022/05/15 00:06:52;;;;;;;8.27;3.03;;;;;;;18.81;52.04;101367.03;2081899;28;20173;-67
2022/05/15 00:07:56;;;;;;;4.00;2.37;;;;;;;19.00;51.88;101391.03;2081994;28;20426;-67
2022/05/15 00:08:58;;;;;;;6.47;2.50;;;;;;;18.99;51.99;101392.28;2082068;28;20654;-67
2022/05/15 00:09:59;;;;;;;3.83;2.30;;;;;;;18.98;51.84;101388.69;2081767;28;20851;-67
2022/05/15 00:11:00;;;;;;;6.20;2.57;;;;;;;18.97;51.94;101392.75;2082001;28;20419;-67
2022/05/15 00:12:03;;;;;;;5.17;2.43;;;;;;;18.66;51.85;101344.44;2081942;28;20211;-67
2022/05/15 00:13:05;;;;;;;3.40;2.47;;;;;;;18.33;51.99;101295.06;2081109;28;20456;-67
2022/05/15 00:14:06;;;;;;;4.37;2.50;;;;;;;18.89;51.99;101380.28;2080825;28;21039;-67
2022/05/15 00:15:07;;;;;;;5.70;2.40;;;;;;;18.93;51.92;101388.56;2081427;28;20836;-67
2022/05/15 00:16:07;;;;;;;5.10;2.60;;;;;;;18.90;52.10;101393.09;2081884;28;20665;-67
2022/05/15 00:17:08;;;;;;;8.07;2.10;;;;;;;18.86;52.10;101391.69;2081910;28;20179;-67
2022/05/15 00:18:09;;;;;;;2.90;2.20;;;;;;;18.87;52.26;101394.03;2081920;28;20263;-67
2022/05/15 00:19:10;;;;;;;4.77;2.30;;;;;;;18.02;52.03;101258.72;2081560;28;20199;-67
2022/05/15 00:20:11;;;;;;;3.00;2.30;;;;;;;18.94;52.16;101399.31;2082036;28;20495;-67
2022/05/15 00:21:11;;;;;;;4.93;2.20;;;;;;;18.93;52.20;101391.38;2081511;28;20314;-67
2022/05/15 00:22:14;;;;;;;3.70;2.23;;;;;;;18.89;52.20;101397.13;2081802;28;20607;-67
2022/05/15 00:23:14;;;;;;;3.87;2.43;;;;;;;18.72;52.41;101375.50;2080064;28;20231;-67
2022/05/15 00:24:14;;;;;;;4.87;2.30;;;;;;;18.63;51.91;101345.38;2079762;28;20891;-67
2022/05/15 00:25:15;;;;;;;5.90;2.40;;;;;;;18.93;51.94;101402.59;2080668;28;20175;-67
2022/05/15 00:26:16;;;;;;;7.43;2.60;;;;;;;18.92;51.65;101386.97;2081439;28;20192;-67
2022/05/15 00:27:16;;;;;;;3.87;2.50;;;;;;;18.03;51.85;101263.13;2081397;28;20200;-67
2022/05/15 00:28:17;;;;;;;4.53;2.40;;;;;;;18.07;51.73;101274.19;2081336;28;20267;-67
2022/05/15 00:29:17;;;;;;;4.03;2.53;;;;;;;18.92;52.01;101401.03;2081122;28;20698;-67
2022/05/15 00:30:20;;;;;;;4.33;2.43;;;;;;;18.76;51.99;101367.66;2080695;28;20173;-67
2022/05/15 00:31:21;;;;;;;5.20;2.40;;;;;;;18.12;52.05;101274.31;2080483;28;20770;-67
2022/05/15 00:32:22;;;;;;;4.30;2.53;;;;;;;18.94;52.01;101398.53;2081352;28;20412;-67
2022/05/15 00:33:22;;;;;;;4.60;1.97;;;;;;;18.98;51.92;101399.16;2080624;28;20622;-67
2022/05/15 00:34:23;;;;;;;5.43;2.30;;;;;;;19.01;51.68;101398.22;2079836;28;20209;-67
2022/05/15 00:35:24;;;;;;;5.87;2.47;;;;;;;18.99;51.71;101401.47;2081224;28;20657;-67
2022/05/15 00:36:25;;;;;;;3.57;2.10;;;;;;;19.00;51.55;101405.06;2081309;28;20769;-67
2022/05/15 00:37:25;;;;;;;4.97;2.50;;;;;;;18.44;51.87;101303.78;2081027;28;20805;-67
2022/05/15 00:38:26;;;;;;;6.53;2.20;;;;;;;18.95;51.77;101388.84;2080170;28;20226;-67
2022/05/15 00:39:26;;;;;;;6.50;2.40;;;;;;;18.07;52.09;101248.94;2080531;28;20185;-67
2022/05/15 00:40:26;;;;;;;4.23;2.40;;;;;;;19.08;52.11;101398.66;2081130;28;20268;-67
2022/05/15 00:41:27;;;;;;;7.43;2.40;;;;;;;19.08;52.18;101398.66;2081327;28;20183;-67
2022/05/15 00:42:28;;;;;;;6.33;2.97;;;;;;;19.09;52.05;101405.06;2081225;28;20216;-67
2022/05/15 00:43:47;;;;;;;6.57;2.60;;;;;;;19.09;52.11;101399.44;2080245;28;20659;-67
2022/05/15 00:44:48;;;;;;;7.70;2.43;;;;;;;19.06;51.96;101397.56;2080669;28;20172;-67
2022/05/15 00:45:48;;;;;;;3.30;2.20;;;;;;;18.77;51.72;101344.75;2081321;28;20416;-67
2022/05/15 00:46:49;;;;;;;4.70;2.40;;;;;;;19.05;51.64;101394.00;2081311;28;20178;-67
2022/05/15 00:47:50;;;;;;;4.87;2.53;;;;;;;19.07;52.03;101399.13;2081282;28;20187;-67
2022/05/15 00:48:51;;;;;;;5.30;2.37;;;;;;;18.48;51.99;101329.66;2081354;28;20177;-67
2022/05/15 00:49:53;;;;;;;4.17;2.40;;;;;;;19.04;52.02;101403.66;2080914;28;20257;-67
2022/05/15 00:50:55;;;;;;;8.07;2.33;;;;;;;19.01;51.73;101399.00;2081141;28;20424;-67
2022/05/15 00:52:04;;;;;;;8.70;2.70;;;;;;;19.02;51.80;101392.13;2081146;28;20424;-67
2022/05/15 00:53:09;;;;;;;10.90;3.17;;;;;;;18.99;52.09;101401.47;2080707;28;20901;-67
2022/05/15 00:54:28;;;;;;;7.40;2.87;;;;;;;18.97;52.15;101394.78;2080172;28;20458;-67
2022/05/15 00:55:46;;;;;;;4.77;2.30;;;;;;;18.90;51.84;101401.53;2081171;28;20417;-67
2022/05/15 00:57:13;;;;;;;3.73;2.23;;;;;;;18.92;52.05;101403.84;2081136;28;20411;-67
2022/05/15 00:58:31;;;;;;;3.53;2.20;;;;;;;18.91;51.99;101399.47;2074443;28;20439;-67
2022/05/15 00:59:42;;;;;;;5.63;2.27;;;;;;;18.70;52.25;101377.97;2081128;28;20776;-67
2022/05/15 01:00:43;;;;;;;4.20;2.17;;;;;;;18.87;52.32;101415.69;2080986;28;20415;-67
2022/05/15 01:01:44;;;;;;;6.73;2.20;;;;;;;18.82;52.12;101399.47;2081133;28;20865;-67
2022/05/15 01:02:53;;;;;;;6.13;2.30;;;;;;;18.33;52.30;101315.50;2080774;28;20219;-67
2022/05/15 01:03:54;;;;;;;4.20;2.30;;;;;;;18.84;52.03;101399.81;2079979;28;20411;-67
2022/05/15 01:04:55;;;;;;;4.43;2.07;;;;;;;18.85;52.30;101393.72;2080508;28;20421;-67
2022/05/15 01:05:56;;;;;;;3.83;2.00;;;;;;;18.83;52.43;101401.81;2081137;28;20598;-67
2022/05/15 01:06:57;;;;;;;4.87;2.30;;;;;;;18.71;52.25;101377.50;2081070;28;20189;-67
2022/05/15 01:07:58;;;;;;;9.43;3.10;;;;;;;18.82;52.31;101394.66;2081058;28;20449;-67
2022/05/15 01:09:01;;;;;;;10.37;3.27;;;;;;;18.40;52.10;101351.66;2081026;28;20185;-67
2022/05/15 01:10:04;;;;;;;11.30;2.90;;;;;;;18.61;52.20;101375.97;2080921;28;20420;-67
2022/05/15 01:11:10;;;;;;;4.63;2.43;;;;;;;18.76;52.40;101390.13;2081053;28;20420;-67
2022/05/15 01:12:12;;;;;;;9.47;3.20;;;;;;;18.69;52.40;101385.63;2081243;28;20942;-67
2022/05/15 01:13:14;;;;;;;7.17;2.23;;;;;;;18.72;52.35;101395.91;2080161;28;20413;-67
2022/05/15 01:14:18;;;;;;;6.33;2.73;;;;;;;18.47;52.39;101354.13;2080085;28;20986;-67
2022/05/15 01:15:23;;;;;;;14.27;3.00;;;;;;;18.73;52.79;101389.03;2080733;28;20508;-67
2022/05/15 01:16:25;;;;;;;8.27;2.90;;;;;;;18.31;52.67;101348.06;2080213;28;20536;-67
2022/05/15 01:17:26;;;;;;;9.07;2.90;;;;;;;18.75;52.52;101406.22;2080550;28;20422;-67
2022/05/15 01:18:32;;;;;;;7.37;2.40;;;;;;;18.74;52.54;101401.84;2080842;28;20427;-67
2022/05/15 01:19:35;;;;;;;8.43;2.70;;;;;;;18.71;52.46;101399.97;2080248;28;20183;-67
2022/05/15 01:20:38;;;;;;;9.93;2.63;;;;;;;18.71;52.64;101404.81;2080367;28;20446;-67
2022/05/15 01:21:52;;;;;;;12.03;3.17;;;;;;;18.71;52.93;101391.56;2080764;28;20430;-67
2022/05/15 01:22:53;;;;;;;12.47;2.83;;;;;;;18.75;52.83;101395.00;2031391;28;1280998;-67
2022/05/15 01:23:54;;;;;;;11.20;2.90;;;;;;;18.73;52.87;101405.13;2080387;28;20419;-67
2022/05/15 01:24:54;;;;;;;12.50;2.60;;;;;;;18.73;52.90;101405.88;2080554;28;20191;-67
2022/05/15 01:25:57;;;;;;;6.70;2.57;;;;;;;17.83;52.89;101282.44;2081247;28;20201;-67
2022/05/15 01:27:05;;;;;;;8.90;2.33;;;;;;;18.73;52.86;101402.31;2081504;28;20205;-67
2022/05/15 01:28:18;;;;;;;6.77;2.63;;;;;;;18.00;52.80;101300.50;2081261;28;20419;-67
2022/05/15 01:29:27;;;;;;;4.47;2.40;;;;;;;18.69;52.89;101401.69;2081109;28;20406;-67
2022/05/15 01:30:28;;;;;;;6.30;2.60;;;;;;;18.67;52.80;101404.97;2081209;28;20764;-67
2022/05/15 01:31:29;;;;;;;5.27;2.63;;;;;;;18.67;52.91;101404.19;2081318;28;20487;-67
2022/05/15 01:32:30;;;;;;;7.83;2.50;;;;;;;18.64;52.96;101407.94;2081253;28;20494;-67
2022/05/15 01:33:31;;;;;;;6.47;2.50;;;;;;;18.62;52.86;101407.63;2080348;28;20181;-67
2022/05/15 01:34:32;;;;;;;7.57;2.37;;;;;;;18.54;53.13;101397.97;2080177;28;20264;-67
2022/05/15 01:35:32;;;;;;;9.23;2.90;;;;;;;18.13;53.21;101332.00;2080712;28;20245;-67
2022/05/15 01:36:33;;;;;;;4.83;2.23;;;;;;;18.16;52.32;101339.47;2080639;28;20184;-67
2022/05/15 01:37:35;;;;;;;4.03;2.10;;;;;;;18.60;52.41;101404.50;2081415;28;20669;-67
2022/05/15 01:38:35;;;;;;;4.60;2.23;;;;;;;18.60;52.65;101404.50;2081333;28;20201;-67
2022/05/15 01:39:37;;;;;;;5.60;2.20;;;;;;;18.63;52.43;101412.75;2080965;28;20867;-67
2022/05/15 01:40:39;;;;;;;10.27;2.77;;;;;;;18.64;52.86;101408.72;2080460;28;20248;-67
2022/05/15 01:41:39;;;;;;;8.10;2.17;;;;;;;18.65;52.71;101410.28;2072576;28;20428;-67
2022/05/15 01:42:40;;;;;;;10.70;2.50;;;;;;;18.44;52.85;101408.41;2080260;28;20426;-67
2022/05/15 01:43:43;;;;;;;7.07;2.60;;;;;;;18.62;52.73;101413.25;2079627;28;20575;-67
2022/05/15 01:44:44;;;;;;;7.67;2.17;;;;;;;18.30;52.61;101366.91;2080235;28;20701;-67
2022/05/15 01:45:44;;;;;;;4.90;2.00;;;;;;;18.53;52.95;101402.03;2081236;28;20870;-67
2022/05/15 01:46:45;;;;;;;5.47;2.20;;;;;;;17.71;52.53;101285.38;2081042;28;20180;-67
2022/05/15 01:47:45;;;;;;;3.47;2.00;;;;;;;18.55;52.69;101416.34;2081146;28;20180;-67
2022/05/15 01:48:46;;;;;;;5.13;2.43;;;;;;;18.52;52.69;101412.44;2080396;28;20180;-67
2022/05/15 01:49:46;;;;;;;4.03;2.50;;;;;;;18.55;52.79;101414.34;2080390;28;20304;-67
2022/05/15 01:50:47;;;;;;;4.47;2.37;;;;;;;18.55;52.79;101408.72;2081045;28;20626;-67
2022/05/15 01:51:48;;;;;;;4.97;2.50;;;;;;;17.47;52.57;101264.78;2080267;28;20188;-67
2022/05/15 01:52:48;;;;;;;5.37;2.17;;;;;;;18.54;52.76;101412.00;2079914;28;20177;-67
2022/05/15 01:53:50;;;;;;;4.07;2.27;;;;;;;18.57;52.94;101417.44;2079970;28;20201;-67
2022/05/15 01:54:50;;;;;;;4.73;2.30;;;;;;;18.56;52.78;101410.28;2080480;28;20207;-67
2022/05/15 01:55:52;;;;;;;4.77;2.63;;;;;;;18.56;52.97;101418.69;2081114;28;20511;-67
2022/05/15 01:56:52;;;;;;;4.90;2.20;;;;;;;18.51;52.97;101419.31;2081181;28;20179;-67
2022/05/15 01:57:53;;;;;;;3.50;2.27;;;;;;;18.51;53.17;101413.72;2081014;28;20416;-67
2022/05/15 01:58:53;;;;;;;5.70;2.23;;;;;;;18.42;52.97;101404.53;2081268;28;20169;-67
2022/05/15 01:59:54;;;;;;;5.33;2.20;;;;;;;18.49;53.20;101413.41;2080983;28;20181;-67
2022/05/15 02:00:54;;;;;;;4.60;2.30;;;;;;;18.55;52.99;101419.94;2080998;28;20266;-67
2022/05/15 02:01:55;;;;;;;4.00;2.40;;;;;;;18.54;53.05;101417.59;2081081;28;20178;-67
2022/05/15 02:02:55;;;;;;;6.30;2.73;;;;;;;18.55;53.10;101410.75;2080554;28;20175;-67
2022/05/15 02:03:56;;;;;;;3.67;1.93;;;;;;;18.52;52.96;101418.06;2079882;28;20200;-67
2022/05/15 02:04:56;;;;;;;6.30;2.40;;;;;;;18.54;53.04;101420.41;2080608;28;20239;-67
2022/05/15 02:05:57;;;;;;;5.20;2.30;;;;;;;18.52;53.04;101420.88;2081110;28;20214;-66
2022/05/15 02:06:57;;;;;;;4.90;2.50;;;;;;;18.48;53.07;101408.25;2081177;28;20185;-67
2022/05/15 02:07:58;;;;;;;9.00;2.90;;;;;;;18.56;53.33;101424.31;2080940;28;20177;-67
2022/05/15 02:08:58;;;;;;;5.53;2.30;;;;;;;18.58;53.23;101423.84;2081086;28;20268;-67
2022/05/15 02:09:59;;;;;;;6.00;2.40;;;;;;;18.58;53.13;101415.44;2080685;28;20234;-67
2022/05/15 02:11:00;;;;;;;3.10;2.17;;;;;;;18.58;53.27;101423.84;2081157;28;20200;-67
2022/05/15 02:12:00;;;;;;;5.90;2.50;;;;;;;18.58;53.15;101418.25;2081044;28;20224;-67
2022/05/15 02:13:01;;;;;;;5.63;2.50;;;;;;;18.56;53.35;101420.72;2080407;28;20421;-67
2022/05/15 02:14:02;;;;;;;6.43;2.70;;;;;;;18.52;53.43;101417.31;2079801;28;20201;-67
2022/05/15 02:15:04;;;;;;;5.53;2.27;;;;;;;18.53;53.70;101414.00;2080496;28;20181;-67
2022/05/15 02:16:04;;;;;;;7.17;3.07;;;;;;;18.08;53.28;101357.06;2080794;28;20264;-67
2022/05/15 02:17:05;;;;;;;4.97;2.37;;;;;;;18.38;53.49;101403.88;2081057;28;20427;-67
2022/05/15 02:18:06;;;;;;;4.87;2.40;;;;;;;17.36;53.52;101251.94;2080967;28;20177;-67
2022/05/15 02:19:07;;;;;;;3.40;1.97;;;;;;;18.51;53.60;101424.94;2080783;28;20170;-67
2022/05/15 02:20:10;;;;;;;5.87;2.40;;;;;;;18.51;52.93;101427.75;2080926;28;20215;-67
2022/05/15 02:21:11;;;;;;;12.47;2.70;;;;;;;18.49;52.79;101421.03;2081011;28;20208;-67
2022/05/15 02:22:12;;;;;;;3.43;2.10;;;;;;;18.50;52.91;101420.56;2080594;28;21265;-67
2022/05/15 02:23:12;;;;;;;4.70;2.30;;;;;;;18.48;53.15;101425.09;2079971;28;20232;-67
2022/05/15 02:24:14;;;;;;;5.20;2.53;;;;;;;18.49;53.34;101454.72;2080047;28;20516;-67
2022/05/15 02:25:15;;;;;;;5.90;2.27;;;;;;;18.49;53.49;101427.44;2080277;28;20173;-67
2022/05/15 02:26:15;;;;;;;4.93;2.50;;;;;;;17.45;53.45;101259.63;2080974;28;20498;-67
2022/05/15 02:27:16;;;;;;;6.53;2.60;;;;;;;18.53;53.38;101428.03;2080897;28;20665;-67
2022/05/15 02:28:16;;;;;;;3.27;2.00;;;;;;;18.53;53.54;101430.09;2080314;28;20704;-67
2022/05/15 02:29:17;;;;;;;3.67;2.30;;;;;;;18.53;53.67;101438.50;2080024;28;20185;-67
2022/05/15 02:30:18;;;;;;;4.77;2.47;;;;;;;18.51;53.66;101430.56;2080867;28;20199;-67
2022/05/15 02:31:19;;;;;;;5.13;2.43;;;;;;;18.25;53.52;101401.19;2080767;28;20171;-67
2022/05/15 02:32:19;;;;;;;4.17;2.20;;;;;;;18.33;53.47;101412.91;2080977;28;20177;-67
2022/05/15 02:33:20;;;;;;;3.30;2.30;;;;;;;18.45;53.30;101434.44;2080189;28;20202;-67
2022/05/15 02:34:21;;;;;;;7.67;2.20;;;;;;;18.46;53.20;101427.56;2079482;28;20199;-67
2022/05/15 02:35:21;;;;;;;6.03;2.30;;;;;;;18.26;53.35;101399.94;2080674;28;20239;-67
2022/05/15 02:36:22;;;;;;;4.27;2.20;;;;;;;18.47;53.68;101432.72;2080852;28;20198;-67
2022/05/15 02:37:22;;;;;;;8.17;2.30;;;;;;;18.22;53.45;101413.34;2080754;28;20830;-67
2022/05/15 02:38:24;;;;;;;4.03;2.30;;;;;;;18.38;53.86;101441.13;2080887;28;20264;-67
2022/05/15 02:39:24;;;;;;;5.20;2.23;;;;;;;18.34;53.86;101436.94;2080707;28;20256;-67
2022/05/15 02:40:25;;;;;;;4.73;2.47;;;;;;;17.23;53.93;101278.53;2080662;28;20420;-67
2022/05/15 02:41:26;;;;;;;5.70;2.40;;;;;;;18.37;53.84;101445.19;2080189;28;20259;-67
2022/05/15 02:42:27;;;;;;;7.20;2.70;;;;;;;18.38;54.03;101443.94;2080389;28;20192;-67
2022/05/15 02:43:28;;;;;;;5.03;2.20;;;;;;;18.33;53.99;101444.59;2079875;28;20255;-67
2022/05/15 02:44:29;;;;;;;7.63;2.40;;;;;;;18.27;54.39;101444.38;2079383;28;20203;-67
2022/05/15 02:45:29;;;;;;;6.67;2.77;;;;;;;18.08;54.36;101411.91;2080838;28;20303;-67
2022/05/15 02:46:30;;;;;;;5.33;2.40;;;;;;;18.27;54.30;101444.38;2080609;28;20468;-66
2022/05/15 02:47:31;;;;;;;3.40;2.03;;;;;;;17.35;54.25;101342.84;2080853;28;20234;-67
2022/05/15 02:51:09;;;;;;;7.33;2.57;;;;;;;18.16;54.69;101448.09;2080864;28;20402;-67
2022/05/15 02:52:09;;;;;;;11.20;3.10;;;;;;;18.15;54.80;101455.72;2080760;28;20522;-67
2022/05/15 02:53:10;;;;;;;9.10;2.87;;;;;;;18.09;54.51;101443.56;2079940;28;20177;-67
2022/05/15 02:54:10;;;;;;;5.83;2.80;;;;;;;18.11;54.45;101452.28;2079595;28;20295;-67
2022/05/15 02:55:11;;;;;;;22.67;4.43;;;;;;;18.10;54.73;101456.34;2080166;28;20176;-67
2022/05/15 02:56:22;;;;;;;15.10;3.60;;;;;;;17.68;54.49;101402.78;2080824;28;20288;-67
2022/05/15 02:57:22;;;;;;;19.27;4.23;;;;;;;18.09;54.34;101454.78;2080647;28;20570;-67
2022/05/15 02:58:23;;;;;;;22.27;5.30;;;;;;;17.02;54.58;101311.00;2080710;28;20425;-67
2022/05/15 02:59:24;;;;;;;5.77;3.10;;;;;;;18.02;54.64;101463.47;2080562;28;20176;-67
2022/05/15 03:00:26;;;;;;;21.90;4.50;;;;;;;17.99;54.78;101459.56;2080778;28;20180;-67
2022/05/15 03:01:27;;;;;;;16.50;3.77;;;;;;;17.94;55.21;101462.22;2080755;28;20183;-67
2022/05/15 03:02:28;;;;;;;12.77;3.20;;;;;;;17.91;54.91;101460.31;2080624;28;20414;-67
2022/05/15 03:03:28;;;;;;;8.23;3.70;;;;;;;17.87;55.15;101464.53;2079745;28;20624;-67
2022/05/15 03:04:29;;;;;;;5.30;2.77;;;;;;;17.89;55.22;101460.03;2079364;28;20566;-67
2022/05/15 03:05:29;;;;;;;10.10;3.20;;;;;;;17.61;54.88;101432.34;2080785;28;20266;-67
2022/05/15 03:06:30;;;;;;;10.27;3.30;;;;;;;17.83;55.38;101461.88;2080674;28;20177;-67
2022/05/15 03:07:31;;;;;;;15.17;3.67;;;;;;;16.69;55.25;101289.47;2080727;28;20177;-67
2022/05/15 03:08:38;;;;;;;7.57;3.40;;;;;;;17.81;55.26;101467.16;2080671;28;20408;-67
2022/05/15 03:09:39;;;;;;;19.03;4.30;;;;;;;17.77;54.99;101462.94;2079797;28;20232;-67
2022/05/15 03:10:39;;;;;;;8.60;3.23;;;;;;;17.73;55.19;101455.44;2079934;28;20449;-67
2022/05/15 03:11:40;;;;;;;9.50;2.47;;;;;;;17.81;55.12;101464.34;2080692;28;20188;-67
2022/05/15 03:12:41;;;;;;;9.47;3.33;;;;;;;17.73;55.30;101465.88;2080585;28;20188;-67
2022/05/15 03:13:42;;;;;;;19.33;4.17;;;;;;;17.27;55.57;101416.44;2079290;28;20175;-67
2022/05/15 03:14:42;;;;;;;4.63;2.97;;;;;;;17.72;55.56;101469.13;2079953;28;20174;-67
2022/05/15 03:15:43;;;;;;;7.93;2.67;;;;;;;17.67;55.54;101467.72;2080555;28;20422;-66
2022/05/15 03:16:44;;;;;;;7.33;2.83;;;;;;;17.66;55.54;101474.56;2079943;28;20629;-66
2022/05/15 03:17:44;;;;;;;8.53;3.37;;;;;;;17.17;55.77;101414.81;2080161;28;20179;-66
2022/05/15 03:18:50;;;;;;;7.80;3.30;;;;;;;17.60;55.73;101475.63;2080515;28;20183;-67
2022/05/15 03:19:51;;;;;;;4.53;2.80;;;;;;;17.21;55.71;101416.25;2080495;28;20195;-66
2022/05/15 03:20:51;;;;;;;10.00;2.33;;;;;;;17.65;55.64;101480.66;2080570;28;20459;-67
2022/05/15 03:21:52;;;;;;;6.33;2.80;;;;;;;17.03;55.73;101396.56;2080500;28;20560;-66
2022/05/15 03:22:58;;;;;;;5.30;2.27;;;;;;;17.62;55.45;101487.94;2079704;28;20185;-67
2022/05/15 03:24:11;;;;;;;6.67;2.70;;;;;;;17.55;55.76;101493.06;2079446;28;20165;-66
2022/05/15 03:25:12;;;;;;;9.37;3.30;;;;;;;16.54;55.55;101327.66;2080013;28;20406;-67
2022/05/15 03:26:13;;;;;;;5.73;2.83;;;;;;;17.60;55.92;101496.03;2080805;28;21099;-66
2022/05/15 03:27:13;;;;;;;8.17;2.60;;;;;;;17.61;55.67;101494.78;2080627;28;20172;-66
2022/05/15 03:28:14;;;;;;;7.17;2.87;;;;;;;17.59;55.75;101497.28;2080602;28;20177;-66
2022/05/15 03:29:17;;;;;;;5.50;2.60;;;;;;;16.49;55.87;101348.59;2080430;28;20173;-66
2022/05/15 03:30:18;;;;;;;5.90;2.83;;;;;;;17.47;55.88;101483.34;2080619;28;20210;-66
2022/05/15 03:31:19;;;;;;;10.60;2.50;;;;;;;17.64;55.52;101505.09;2080466;28;20407;-67
2022/05/15 03:32:20;;;;;;;4.00;2.57;;;;;;;17.71;55.52;101492.81;2080676;28;20173;-66
2022/05/15 03:33:20;;;;;;;4.60;2.70;;;;;;;17.73;55.38;101504.34;2079864;28;20196;-66
2022/05/15 03:34:21;;;;;;;4.57;2.60;;;;;;;17.68;55.58;101506.50;2079074;28;20308;-67
2022/05/15 03:35:21;;;;;;;4.80;2.60;;;;;;;17.68;55.50;101503.69;2080375;28;20181;-66
2022/05/15 03:36:22;;;;;;;4.97;2.57;;;;;;;17.62;55.55;101504.78;2080007;28;20234;-66
2022/05/15 03:37:22;;;;;;;6.00;2.77;;;;;;;17.15;55.36;101465.69;2079897;28;20267;-66
2022/05/15 03:38:23;;;;;;;8.23;2.70;;;;;;;17.68;55.36;101514.91;2080618;28;20188;-66
2022/05/15 03:39:23;;;;;;;5.43;2.67;;;;;;;17.58;55.69;101495.72;2080491;28;20184;-66
2022/05/15 03:40:24;;;;;;;6.50;2.40;;;;;;;17.66;55.74;101524.25;2080428;28;20253;-66
2022/05/15 03:41:25;;;;;;;5.83;2.90;;;;;;;17.67;55.81;101521.75;2080714;28;20260;-66
2022/05/15 03:42:26;;;;;;;5.70;2.57;;;;;;;17.73;55.57;101521.94;2080584;28;20179;-67
2022/05/15 03:43:26;;;;;;;4.60;2.50;;;;;;;17.76;55.55;101523.06;2079643;28;20182;-66
2022/05/15 03:44:27;;;;;;;6.00;2.50;;;;;;;17.41;55.54;101469.16;2079096;28;20423;-66
2022/05/15 03:45:28;;;;;;;6.30;2.53;;;;;;;17.37;55.42;101469.25;2080624;28;20316;-66
2022/05/15 03:46:29;;;;;;;7.60;2.80;;;;;;;17.77;55.75;101520.56;2080500;28;20944;-66
2022/05/15 03:47:30;;;;;;;7.13;2.60;;;;;;;17.83;55.88;101532.72;2080587;28;20195;-66
2022/05/15 03:48:30;;;;;;;5.57;2.97;;;;;;;16.85;55.63;101381.66;2080469;28;20434;-67
2022/05/15 03:49:31;;;;;;;5.13;2.80;;;;;;;17.75;55.76;101530.66;2080287;28;20235;-66
2022/05/15 03:50:32;;;;;;;6.37;2.70;;;;;;;17.68;55.23;101511.34;2080459;28;20574;-67
2022/05/15 03:51:33;;;;;;;4.37;2.50;;;;;;;17.80;55.70;101516.06;2080620;28;20199;-66
2022/05/15 03:52:34;;;;;;;4.33;2.73;;;;;;;17.87;55.44;101527.00;2080434;28;20169;-66
2022/05/15 03:53:35;;;;;;;6.47;2.90;;;;;;;16.89;54.86;101373.88;2079383;28;20413;-67
2022/05/15 03:54:36;;;;;;;6.33;2.73;;;;;;;16.94;55.28;101388.09;2079393;28;20440;-66
2022/05/15 03:55:36;;;;;;;7.77;3.27;;;;;;;17.93;55.38;101539.94;2080428;28;20256;-66
2022/05/15 03:56:50;;;;;;;7.00;3.13;;;;;;;17.96;54.78;101534.69;2080448;28;20185;-66
2022/05/15 03:57:55;;;;;;;4.37;2.70;;;;;;;17.98;55.07;101538.59;2080576;28;20180;-66
2022/05/15 03:58:56;;;;;;;8.27;3.07;;;;;;;18.00;55.05;101541.69;2080580;28;20490;-67
2022/05/15 03:59:56;;;;;;;6.60;3.00;;;;;;;17.99;55.00;101531.72;2080237;28;20410;-67
2022/05/15 04:00:57;;;;;;;7.07;2.70;;;;;;;17.98;55.20;101536.53;2080605;28;20540;-66
2022/05/15 04:02:01;;;;;;;6.77;2.80;;;;;;;17.31;54.98;101431.09;2080308;28;20178;-66
2022/05/15 04:03:02;;;;;;;5.33;2.77;;;;;;;17.98;54.95;101553.38;2079828;28;20176;-66
2022/05/15 04:04:03;;;;;;;5.77;3.03;;;;;;;18.00;55.18;101541.69;2079559;28;20601;-66
2022/05/15 04:05:05;;;;;;;5.87;3.30;;;;;;;17.07;55.32;101393.59;2080081;28;20649;-66
2022/05/15 04:06:06;;;;;;;6.60;2.80;;;;;;;18.08;55.45;101551.41;2080386;28;20537;-67
2022/05/15 04:07:06;;;;;;;6.60;3.13;;;;;;;18.10;55.50;101546.09;2081968;28;20503;-67
2022/05/15 04:08:07;;;;;;;6.90;2.97;;;;;;;18.14;55.22;101547.50;2082021;28;20541;-66
2022/05/15 04:09:08;;;;;;;10.73;3.33;;;;;;;17.23;55.20;101410.97;2081792;28;20177;-67
2022/05/15 04:10:09;;;;;;;7.07;2.97;;;;;;;18.20;55.21;101547.69;2081756;28;20207;-67
2022/05/15 04:11:09;;;;;;;6.77;3.33;;;;;;;18.26;54.79;101551.44;2082059;28;20179;-67
2022/05/15 04:12:12;;;;;;;6.33;3.30;;;;;;;18.28;54.44;101548.97;2082023;28;20944;-66
2022/05/15 04:13:13;;;;;;;7.77;3.60;;;;;;;18.34;54.55;101552.78;2081196;28;20606;-67
2022/05/15 04:14:13;;;;;;;7.10;2.80;;;;;;;18.33;54.87;101556.81;2080916;28;20461;-66
2022/05/15 04:15:15;;;;;;;8.57;3.50;;;;;;;18.37;54.51;101554.63;2081385;28;20536;-66
2022/05/15 04:16:16;;;;;;;7.03;3.40;;;;;;;18.39;54.22;101551.38;2081831;28;20180;-66
2022/05/15 04:17:16;;;;;;;6.27;3.13;;;;;;;18.10;54.17;101498.41;2081903;28;20413;-66
2022/05/15 04:18:17;;;;;;;4.87;3.20;;;;;;;18.50;54.32;101560.13;2081936;28;20180;-66
2022/05/15 04:19:17;;;;;;;5.27;3.40;;;;;;;18.52;54.12;101566.84;2081704;28;20192;-66
2022/05/15 04:20:21;;;;;;;6.90;3.10;;;;;;;18.50;54.12;101566.53;2081866;28;20264;-66
2022/05/15 04:21:22;;;;;;;8.23;3.63;;;;;;;18.42;54.35;101570.09;2081879;28;20211;-66
2022/05/15 04:22:22;;;;;;;14.20;3.67;;;;;;;17.63;54.36;101446.66;2081790;28;20423;-66
2022/05/15 04:23:22;;;;;;;13.53;4.10;;;;;;;18.49;54.37;101567.00;2081002;28;20220;-67
2022/05/15 04:24:23;;;;;;;10.10;3.90;;;;;;;17.93;54.54;101474.69;2080330;28;20563;-66
2022/05/15 04:25:24;;;;;;;8.50;3.83;;;;;;;18.58;54.36;101567.03;2081725;28;20292;-66
2022/05/15 04:26:24;;;;;;;7.33;3.53;;;;;;;18.02;54.09;101483.91;2081195;28;20247;-67
2022/05/15 04:27:25;;;;;;;10.63;3.40;;;;;;;18.56;54.23;101569.50;2081320;28;20414;-67
2022/05/15 04:28:26;;;;;;;6.73;3.43;;;;;;;18.56;54.17;101573.09;2081724;28;20686;-66
2022/05/15 04:29:27;;;;;;;7.93;3.57;;;;;;;18.54;53.99;101569.97;2081727;28;20702;-66
2022/05/15 04:30:28;;;;;;;7.90;3.30;;;;;;;18.53;53.98;101571.19;2081697;28;20455;-66
2022/05/15 04:31:29;;;;;;;8.37;3.40;;;;;;;18.53;54.21;101576.81;2081725;28;20423;-66
2022/05/15 04:32:29;;;;;;;8.40;3.50;;;;;;;18.55;54.26;101579.16;2081842;28;20598;-66
2022/05/15 04:33:30;;;;;;;5.97;3.33;;;;;;;18.56;54.52;101573.09;2080008;28;20682;-66
2022/05/15 04:34:30;;;;;;;7.67;3.63;;;;;;;18.60;54.56;101581.34;2079819;28;20210;-66
2022/05/15 04:35:31;;;;;;;7.83;3.80;;;;;;;18.60;54.52;101581.34;2081794;28;20187;-66
2022/05/15 04:36:34;;;;;;;6.53;3.27;;;;;;;18.56;54.23;101587.13;2081782;28;20172;-67
2022/05/15 04:37:34;;;;;;;7.80;3.70;;;;;;;18.55;54.49;101582.75;2081745;28;20172;-66
2022/05/15 04:38:35;;;;;;;8.03;3.53;;;;;;;18.59;54.45;101585.41;2081712;28;20443;-66
2022/05/15 04:39:36;;;;;;;9.27;3.40;;;;;;;18.59;54.52;101591.03;2080850;28;20710;-66
2022/05/15 04:40:36;;;;;;;9.90;3.70;;;;;;;18.62;54.69;101590.88;2081139;28;20179;-66
2022/05/15 04:41:37;;;;;;;7.17;3.63;;;;;;;18.65;54.86;101592.78;2081761;28;20181;-66
2022/05/15 04:42:38;;;;;;;7.43;3.70;;;;;;;18.68;54.54;101586.22;2080927;28;20829;-66
2022/05/15 04:43:38;;;;;;;9.50;3.80;;;;;;;18.71;54.30;101596.53;2079999;28;20175;-66
2022/05/15 04:44:39;;;;;;;8.30;3.50;;;;;;;17.78;54.58;101452.03;2080514;28;20574;-67
2022/05/15 04:45:39;;;;;;;12.73;3.60;;;;;;;18.72;54.98;101594.50;2081620;28;20284;-67
2022/05/15 04:46:41;;;;;;;7.63;3.57;;;;;;;18.67;55.26;101595.88;2081663;28;20257;-67
2022/05/15 04:47:46;;;;;;;6.13;3.50;;;;;;;18.67;55.43;101598.69;2081807;28;20562;-66
2022/05/15 04:48:46;;;;;;;8.97;3.73;;;;;;;18.70;55.64;101600.59;2081600;28;20423;-67
2022/05/15 04:49:49;;;;;;;7.07;4.00;;;;;;;18.69;55.57;101603.84;2081521;28;20412;-66